createdAt,value
2022-09-15T00:02:23.657Z,996.3
2022-09-15T00:05:23.560Z,996.3
2022-09-15T00:08:23.533Z,996.3
2022-09-15T00:11:23.536Z,996.1
2022-09-15T00:14:23.537Z,996.1
2022-09-15T00:17:23.545Z,996.2
2022-09-15T00:20:23.542Z,996.2
2022-09-15T00:23:23.570Z,996.2
2022-09-15T00:26:23.544Z,996.3
2022-09-15T00:29:23.544Z,996.3
2022-09-15T00:32:23.557Z,996.2
2022-09-15T00:35:23.550Z,996.3
2022-09-15T00:38:23.551Z,996.3
2022-09-15T00:41:23.572Z,996.1
2022-09-15T00:44:23.557Z,996.2
2022-09-15T00:47:23.565Z,996.2
2022-09-15T00:50:23.564Z,996.2
2022-09-15T00:53:23.566Z,996.2
2022-09-15T00:56:23.577Z,996.2
2022-09-15T00:59:23.590Z,996.2
2022-09-15T01:02:23.710Z,996.2
2022-09-15T01:05:23.580Z,996.4
2022-09-15T01:08:23.572Z,996.2
2022-09-15T01:11:23.578Z,996.3
2022-09-15T01:14:23.577Z,996.3
2022-09-15T01:17:23.617Z,996.4
2022-09-15T01:20:23.579Z,996.3
2022-09-15T01:23:23.583Z,996.3
2022-09-15T01:26:23.591Z,996.4
2022-09-15T01:29:23.595Z,996.5
2022-09-15T01:32:23.610Z,996.4
2022-09-15T01:35:23.635Z,996.4
2022-09-15T01:38:23.609Z,996.4
2022-09-15T01:41:23.608Z,996.5
2022-09-15T01:44:23.607Z,996.4
2022-09-15T01:47:23.621Z,996.5
2022-09-15T01:50:23.614Z,996.4
2022-09-15T01:53:23.642Z,996.4
2022-09-15T01:56:23.632Z,996.4
2022-09-15T01:59:23.641Z,996.5
2022-09-15T02:02:23.700Z,996.5
2022-09-15T02:05:23.638Z,996.3
2022-09-15T02:08:23.633Z,996.4
2022-09-15T02:11:23.676Z,996.4
2022-09-15T02:14:23.646Z,996.3
2022-09-15T02:17:23.660Z,996.3
2022-09-15T02:20:23.648Z,996.3
2022-09-15T02:23:23.647Z,996.3
2022-09-15T02:26:23.656Z,996.2
2022-09-15T02:29:23.686Z,996.4
2022-09-15T02:32:23.672Z,996.4
2022-09-15T02:35:23.663Z,996.4
2022-09-15T02:38:23.670Z,996.5
2022-09-15T02:41:23.673Z,996.5
2022-09-15T02:44:23.673Z,996.4
2022-09-15T02:47:23.708Z,996.4
2022-09-15T02:50:23.685Z,996.4
2022-09-15T02:53:23.685Z,996.4
2022-09-15T02:56:23.694Z,996.3
2022-09-15T02:59:23.695Z,996.5
2022-09-15T03:02:23.724Z,996.4
2022-09-15T03:05:23.723Z,996.4
2022-09-15T03:08:23.703Z,996.4
2022-09-15T03:11:23.703Z,996.4
2022-09-15T03:14:23.708Z,996.4
2022-09-15T03:17:23.716Z,996.3
2022-09-15T03:20:23.714Z,996.3
2022-09-15T03:23:23.732Z,996.4
2022-09-15T03:26:23.711Z,996.4
2022-09-15T03:29:23.719Z,996.3
2022-09-15T03:32:23.718Z,996.3
2022-09-15T03:35:23.715Z,996.3
2022-09-15T03:38:23.719Z,996.3
2022-09-15T03:41:23.786Z,996.3
2022-09-15T03:44:23.716Z,996.2
2022-09-15T03:47:23.764Z,996.2
2022-09-15T03:50:23.735Z,996.2
2022-09-15T03:53:23.737Z,996.3
2022-09-15T03:56:23.744Z,996.2
2022-09-15T03:59:23.781Z,996.2
2022-09-15T04:02:23.856Z,996.2
2022-09-15T04:05:23.763Z,996.3
2022-09-15T04:08:23.763Z,996.2
2022-09-15T04:11:23.774Z,996.3
2022-09-15T04:14:23.775Z,996.2
2022-09-15T04:17:23.825Z,996.3
2022-09-15T04:20:23.780Z,996.3
2022-09-15T04:23:23.788Z,996.3
2022-09-15T04:26:23.791Z,996.3
2022-09-15T04:29:23.791Z,996.3
2022-09-15T04:32:23.844Z,996.3
2022-09-15T04:35:23.833Z,996.3
2022-09-15T04:38:23.810Z,996.4
2022-09-15T04:41:23.822Z,996.4
2022-09-15T04:44:23.823Z,996.4
2022-09-15T04:47:23.839Z,996.5
2022-09-15T04:50:23.825Z,996.5
2022-09-15T04:53:23.865Z,996.5
2022-09-15T04:56:23.844Z,996.5
2022-09-15T04:59:23.850Z,996.4
2022-09-15T05:02:23.945Z,996.6
2022-09-15T05:05:23.866Z,996.5
2022-09-15T05:08:23.866Z,996.5
2022-09-15T05:11:23.938Z,996.5
2022-09-15T05:14:23.873Z,996.5
2022-09-15T05:17:26.651Z,996.6
2022-09-15T05:20:23.873Z,996.6
2022-09-15T05:23:23.892Z,996.6
2022-09-15T05:26:23.892Z,996.6
2022-09-15T05:29:23.922Z,996.6
2022-09-15T05:32:23.921Z,996.6
2022-09-15T05:35:23.907Z,996.5
2022-09-15T05:38:23.918Z,996.5
2022-09-15T05:41:23.916Z,996.4
2022-09-15T05:44:23.925Z,996.6
2022-09-15T05:47:23.967Z,996.6
2022-09-15T05:50:23.937Z,996.6
2022-09-15T05:53:23.939Z,996.5
2022-09-15T05:56:23.945Z,996.5
2022-09-15T05:59:23.948Z,996.6
2022-09-15T06:02:24.066Z,996.5
2022-09-15T06:05:23.989Z,996.5
2022-09-15T06:08:23.965Z,996.4
2022-09-15T06:11:23.970Z,996.6
2022-09-15T06:14:23.986Z,996.5
2022-09-15T06:17:23.997Z,996.6
2022-09-15T06:20:23.991Z,996.7
2022-09-15T06:23:24.017Z,996.6
2022-09-15T06:26:24.000Z,996.6
2022-09-15T06:29:24.012Z,996.7
2022-09-15T06:32:24.032Z,996.7
2022-09-15T06:35:24.019Z,996.7
2022-09-15T06:38:24.032Z,996.7
2022-09-15T06:41:24.052Z,996.7
2022-09-15T06:44:24.036Z,996.6
2022-09-15T06:47:24.077Z,996.7
2022-09-15T06:50:24.054Z,996.8
2022-09-15T06:53:24.061Z,996.8
2022-09-15T06:56:24.067Z,996.9
2022-09-15T06:59:24.102Z,996.9
2022-09-15T07:02:24.254Z,996.9
2022-09-15T07:05:24.090Z,996.9
2022-09-15T07:08:24.099Z,997
2022-09-15T07:11:24.111Z,996.9
2022-09-15T07:14:24.114Z,997
2022-09-15T07:17:24.191Z,997
2022-09-15T07:20:24.223Z,997
2022-09-15T07:23:24.136Z,997
2022-09-15T07:26:24.143Z,997
2022-09-15T07:29:24.148Z,997
2022-09-15T07:32:24.166Z,997
2022-09-15T07:35:24.190Z,997
2022-09-15T07:38:24.169Z,997
2022-09-15T07:41:24.180Z,997
2022-09-15T07:44:24.179Z,997
2022-09-15T07:47:24.225Z,997
2022-09-15T07:50:24.197Z,997.1
2022-09-15T07:53:24.226Z,997.2
2022-09-15T07:56:24.225Z,997.2
2022-09-15T07:59:24.218Z,997.2
2022-09-15T08:02:24.288Z,997.2
2022-09-15T08:05:24.232Z,997.2
2022-09-15T08:08:24.240Z,997.2
2022-09-15T08:11:24.403Z,997.3
2022-09-15T08:14:24.254Z,997.3
2022-09-15T08:17:24.262Z,997.2
2022-09-15T08:20:24.263Z,997.3
2022-09-15T08:23:24.271Z,997.3
2022-09-15T08:26:24.279Z,997.3
2022-09-15T08:29:24.311Z,997.3
2022-09-15T08:32:24.303Z,997.3
2022-09-15T08:35:24.303Z,997.3
2022-09-15T08:38:24.304Z,997.3
2022-09-15T08:41:24.310Z,997.3
2022-09-15T08:44:24.326Z,997.4
2022-09-15T08:47:24.428Z,997.5
2022-09-15T08:50:24.337Z,997.4
2022-09-15T08:53:24.342Z,997.4
2022-09-15T08:56:24.342Z,997.5
2022-09-15T08:59:24.357Z,997.5
2022-09-15T09:02:24.417Z,997.4
2022-09-15T09:05:24.389Z,997.4
2022-09-15T09:08:24.372Z,997.3
2022-09-15T09:11:24.378Z,997.4
2022-09-15T09:14:24.388Z,997.4
2022-09-15T09:17:24.415Z,997.4
2022-09-15T09:20:24.413Z,997.3
2022-09-15T09:23:24.478Z,997.3
2022-09-15T09:26:24.420Z,997.3
2022-09-15T09:29:24.423Z,997.3
2022-09-15T09:32:24.524Z,997.3
2022-09-15T09:35:24.446Z,997.3
2022-09-15T09:38:24.455Z,997.3
2022-09-15T09:41:24.483Z,997.4
2022-09-15T09:44:24.474Z,997.3
2022-09-15T09:47:24.492Z,997.3
2022-09-15T09:50:24.484Z,997.3
2022-09-15T09:53:24.491Z,997.4
2022-09-15T09:56:24.500Z,997.3
2022-09-15T09:59:24.540Z,997.2
2022-09-15T10:02:24.544Z,997.2
2022-09-15T10:05:24.531Z,997.2
2022-09-15T10:08:24.537Z,997.2
2022-09-15T10:11:24.544Z,997.1
2022-09-15T10:14:24.556Z,997.1
2022-09-15T10:17:24.590Z,997.1
2022-09-15T10:20:24.570Z,997
2022-09-15T10:23:24.587Z,997
2022-09-15T10:26:24.595Z,997
2022-09-15T10:29:24.601Z,996.9
2022-09-15T10:32:25.595Z,996.9
2022-09-15T10:35:24.649Z,996.9
2022-09-15T10:38:24.636Z,996.8
2022-09-15T10:41:24.649Z,996.8
2022-09-15T10:44:24.650Z,996.8
2022-09-15T10:47:24.660Z,996.9
2022-09-15T10:50:24.675Z,996.8
2022-09-15T10:53:24.719Z,996.9
2022-09-15T10:56:24.689Z,996.9
2022-09-15T10:59:24.705Z,996.9
2022-09-15T11:02:24.811Z,997
2022-09-15T11:05:24.721Z,997
2022-09-15T11:08:24.731Z,996.9
2022-09-15T11:11:24.766Z,996.9
2022-09-15T11:14:24.756Z,997
2022-09-15T11:17:24.754Z,997
2022-09-15T11:20:24.773Z,997
2022-09-15T11:23:24.790Z,997
2022-09-15T11:26:24.792Z,997.1
2022-09-15T11:29:24.830Z,997.1
2022-09-15T11:32:24.822Z,997
2022-09-15T11:35:24.828Z,997.1
2022-09-15T11:38:24.828Z,997.2
2022-09-15T11:41:24.846Z,997.3
2022-09-15T11:44:24.857Z,997.4
2022-09-15T11:47:24.885Z,997.4
2022-09-15T11:50:24.875Z,997.4
2022-09-15T11:53:24.883Z,997.4
2022-09-15T11:56:24.897Z,997.4
2022-09-15T11:59:24.911Z,997.3
2022-09-15T12:02:25.033Z,997.4
2022-09-15T12:05:24.956Z,997.5
2022-09-15T12:08:24.939Z,997.4
2022-09-15T12:11:24.958Z,997.4
2022-09-15T12:14:24.963Z,997.4
2022-09-15T12:17:24.980Z,997.4
2022-09-15T12:20:24.992Z,997.5
2022-09-15T12:23:25.024Z,997.6
2022-09-15T12:26:25.015Z,997.6
2022-09-15T12:29:25.025Z,997.6
2022-09-15T12:32:25.044Z,997.5
2022-09-15T12:35:25.045Z,997.4
2022-09-15T12:38:25.062Z,997.4
2022-09-15T12:41:25.099Z,997.3
2022-09-15T12:44:25.087Z,997.3
2022-09-15T12:47:25.098Z,997.3
2022-09-15T12:50:25.118Z,997.3
2022-09-15T12:53:25.158Z,997.2
2022-09-15T12:56:25.141Z,997.2
2022-09-15T12:59:25.208Z,997.2
2022-09-15T13:02:25.354Z,997.2
2022-09-15T13:05:25.181Z,997.2
2022-09-15T13:08:25.199Z,997.1
2022-09-15T13:11:25.202Z,997.2
2022-09-15T13:14:25.217Z,997.2
2022-09-15T13:17:25.258Z,997.1
2022-09-15T13:20:25.248Z,996.9
2022-09-15T13:23:25.261Z,997
2022-09-15T13:26:25.279Z,997
2022-09-15T13:29:25.286Z,997.1
2022-09-15T13:32:25.304Z,997
2022-09-15T13:35:26.492Z,997
2022-09-15T13:38:29.235Z,997
2022-09-15T13:41:25.347Z,997
2022-09-15T13:44:25.361Z,997.1
2022-09-15T13:47:25.377Z,997
2022-09-15T13:50:25.391Z,997
2022-09-15T13:53:25.430Z,996.8
2022-09-15T13:56:25.413Z,996.8
2022-09-15T13:59:25.846Z,996.9
2022-09-15T14:02:25.545Z,996.9
2022-09-15T14:05:25.454Z,996.9
2022-09-15T14:08:25.470Z,997
2022-09-15T14:11:25.522Z,996.9
2022-09-15T14:14:25.503Z,996.8
2022-09-15T14:17:25.514Z,996.9
2022-09-15T14:20:25.521Z,996.9
2022-09-15T14:23:25.548Z,997
2022-09-15T14:26:25.558Z,996.9
2022-09-15T14:29:25.602Z,997.1
2022-09-15T14:32:25.605Z,997.1
2022-09-15T14:35:25.606Z,997.1
2022-09-15T14:38:25.625Z,997.3
2022-09-15T14:41:25.644Z,997.3
2022-09-15T14:47:25.703Z,997.6
2022-09-15T14:50:28.027Z,997.5
2022-09-15T14:53:25.692Z,997.4
2022-09-15T14:56:25.711Z,997.3
2022-09-15T14:59:25.723Z,997.4
2022-09-15T15:02:25.809Z,997.3
2022-09-15T15:05:25.777Z,997.4
2022-09-15T15:08:25.768Z,997.3
2022-09-15T15:11:25.785Z,997.2
2022-09-15T15:14:25.812Z,997.3
2022-09-15T15:17:25.836Z,997.3
2022-09-15T15:20:25.834Z,997.3
2022-09-15T15:23:25.875Z,997.3
2022-09-15T15:26:25.851Z,997.3
2022-09-15T15:29:25.884Z,997.3
2022-09-15T15:32:25.894Z,997.2
2022-09-15T15:35:25.911Z,997.2
2022-09-15T15:38:25.929Z,997.2
2022-09-15T15:41:25.976Z,997.2
2022-09-15T15:44:25.949Z,997.3
2022-09-15T15:47:25.967Z,997.2
2022-09-15T15:50:25.984Z,997.3
2022-09-15T15:53:26.002Z,997.3
2022-09-15T15:56:26.016Z,997.3
2022-09-15T15:59:26.056Z,997.3
2022-09-15T16:02:26.143Z,997.3
2022-09-15T16:05:26.060Z,997.3
2022-09-15T16:08:26.083Z,997.3
2022-09-15T16:11:26.100Z,997.3
2022-09-15T16:14:26.118Z,997.3
2022-09-15T16:17:26.156Z,997.4
2022-09-15T16:20:26.146Z,997.4
2022-09-15T16:23:26.162Z,997.4
2022-09-15T16:26:26.172Z,997.5
2022-09-15T16:29:26.197Z,997.6
2022-09-15T16:32:26.211Z,997.7
2022-09-15T16:35:26.251Z,997.5
2022-09-15T16:38:26.234Z,997.7
2022-09-15T16:41:26.248Z,997.7
2022-09-15T16:44:26.266Z,997.6
2022-09-15T16:47:26.283Z,997.5
2022-09-15T16:50:26.303Z,997.5
2022-09-15T16:53:26.333Z,997.5
2022-09-15T16:56:26.322Z,997.6
2022-09-15T16:59:26.340Z,997.5
2022-09-15T17:02:26.383Z,997.6
2022-09-15T17:05:26.371Z,997.6
2022-09-15T17:08:26.391Z,997.6
2022-09-15T17:11:26.419Z,997.6
2022-09-15T17:14:26.421Z,997.6
2022-09-15T17:17:26.430Z,997.6
2022-09-15T17:20:26.456Z,997.6
2022-09-15T17:23:26.467Z,997.6
2022-09-15T17:26:30.437Z,997.7
2022-09-15T17:29:26.512Z,997.8
2022-09-15T17:32:26.503Z,997.8
2022-09-15T17:35:26.518Z,997.8
2022-09-15T17:38:26.547Z,997.8
2022-09-15T17:41:26.551Z,997.7
2022-09-15T17:44:26.567Z,997.8
2022-09-15T17:47:26.606Z,997.7
2022-09-15T17:50:26.588Z,997.8
2022-09-15T17:53:26.670Z,997.8
2022-09-15T17:56:26.620Z,997.8
2022-09-15T17:59:26.635Z,997.8
2022-09-15T18:02:26.685Z,997.8
2022-09-15T18:05:26.684Z,997.8
2022-09-15T18:08:26.679Z,997.7
2022-09-15T18:11:26.691Z,997.7
2022-09-15T18:14:26.696Z,997.8
2022-09-15T18:17:26.714Z,997.8
2022-09-15T18:20:26.718Z,997.9
2022-09-15T18:23:26.759Z,997.9
2022-09-15T18:26:27.061Z,997.9
2022-09-15T18:29:26.767Z,998
2022-09-15T18:32:26.788Z,998
2022-09-15T18:35:26.798Z,998
2022-09-15T18:38:26.811Z,998
2022-09-15T18:41:26.848Z,998
2022-09-15T18:44:26.834Z,998
2022-09-15T18:47:26.855Z,998.1
2022-09-15T18:50:26.860Z,998
2022-09-15T18:53:26.881Z,998
2022-09-15T18:56:26.890Z,998.1
2022-09-15T18:59:26.919Z,998.1
2022-09-15T19:02:26.989Z,998.1
2022-09-15T19:05:26.919Z,998.1
2022-09-15T19:08:26.934Z,998.2
2022-09-15T19:11:29.129Z,998.3
2022-09-15T19:14:26.955Z,998.3
2022-09-15T19:17:26.991Z,998.3
2022-09-15T19:20:26.977Z,998.1
2022-09-15T19:23:26.990Z,998.2
2022-09-15T19:26:27.011Z,998.3
2022-09-15T19:29:27.014Z,998.2
2022-09-15T19:32:27.035Z,998.2
2022-09-15T19:35:27.064Z,998.3
2022-09-15T19:38:27.051Z,998.3
2022-09-15T19:41:27.074Z,998.4
2022-09-15T19:44:27.073Z,998.3
2022-09-15T19:47:27.089Z,998.3
2022-09-15T19:50:27.096Z,998.3
2022-09-15T19:53:27.126Z,998.2
2022-09-15T19:56:27.124Z,998.2
2022-09-15T19:59:30.954Z,998.4
2022-09-15T20:02:27.204Z,998.4
2022-09-15T20:05:27.152Z,998.5
2022-09-15T20:08:27.159Z,998.4
2022-09-15T20:11:27.193Z,998.5
2022-09-15T20:14:27.189Z,998.5
2022-09-15T20:17:27.238Z,998.5
2022-09-15T20:20:27.209Z,998.5
2022-09-15T20:23:27.211Z,998.5
2022-09-15T20:26:27.223Z,998.5
2022-09-15T20:29:27.256Z,998.5
2022-09-15T20:32:28.360Z,998.5
2022-09-15T20:35:27.251Z,998.5
2022-09-15T20:38:27.256Z,998.6
2022-09-15T20:41:27.269Z,998.5
2022-09-15T20:44:27.283Z,998.5
2022-09-15T20:47:27.319Z,998.5
2022-09-15T20:50:27.303Z,998.5
2022-09-15T20:53:27.312Z,998.5
2022-09-15T20:56:27.323Z,998.5
2022-09-15T20:59:27.328Z,998.6
2022-09-15T21:02:27.355Z,998.4
2022-09-15T21:05:27.381Z,998.5
2022-09-15T21:08:27.365Z,998.6
2022-09-15T21:11:27.367Z,998.6
2022-09-15T21:14:27.386Z,998.6
2022-09-15T21:17:27.388Z,998.7
2022-09-15T21:20:27.395Z,998.6
2022-09-15T21:23:27.433Z,998.6
2022-09-15T21:26:27.420Z,998.7
2022-09-15T21:29:27.424Z,998.7
2022-09-15T21:32:27.433Z,998.7
2022-09-15T21:35:27.438Z,998.7
2022-09-15T21:38:27.448Z,998.7
2022-09-15T21:41:27.473Z,998.8
2022-09-15T21:44:27.458Z,998.7
2022-09-15T21:47:27.461Z,998.6
2022-09-15T21:50:27.470Z,998.8
2022-09-15T21:53:27.478Z,998.8
2022-09-15T21:56:27.483Z,998.8
2022-09-15T21:59:27.519Z,998.8
2022-09-15T22:02:27.584Z,998.8
2022-09-15T22:05:27.500Z,998.9
2022-09-15T22:08:27.502Z,998.9
2022-09-15T22:11:27.510Z,998.9
2022-09-15T22:14:27.521Z,998.8
2022-09-15T22:17:27.549Z,998.8
2022-09-15T22:20:27.527Z,998.9
2022-09-15T22:23:27.541Z,998.9
2022-09-15T22:26:27.538Z,998.9
2022-09-15T22:29:27.540Z,998.9
2022-09-15T22:32:27.553Z,998.9
2022-09-15T22:35:27.583Z,998.9
2022-09-15T22:38:27.554Z,998.9
2022-09-15T22:41:27.561Z,998.8
2022-09-15T22:44:27.557Z,998.8
2022-09-15T22:47:27.566Z,998.8
2022-09-15T22:50:27.571Z,998.8
2022-09-15T22:53:27.607Z,998.8
2022-09-15T22:56:27.572Z,998.8
2022-09-15T22:59:27.576Z,998.8
2022-09-15T23:02:27.635Z,998.8
2022-09-15T23:05:27.579Z,998.7
2022-09-15T23:08:27.588Z,998.8
2022-09-15T23:11:27.614Z,998.8
2022-09-15T23:14:27.586Z,998.8
2022-09-15T23:17:27.589Z,998.8
2022-09-15T23:20:27.594Z,998.8
2022-09-15T23:23:27.611Z,998.8
2022-09-15T23:26:27.596Z,998.9
2022-09-15T23:29:27.630Z,998.8
2022-09-15T23:32:27.598Z,998.9
2022-09-15T23:35:27.604Z,998.9
2022-09-15T23:38:27.619Z,998.8
2022-09-15T23:41:27.604Z,998.9
2022-09-15T23:44:27.608Z,998.8
2022-09-15T23:47:27.643Z,998.8
2022-09-15T23:50:27.621Z,998.8
2022-09-15T23:53:27.654Z,998.7
2022-09-15T23:56:27.668Z,998.8
2022-09-15T23:59:27.688Z,998.8
